Time;durP1;ratioP1;P1;durP2;ratioP2;P2;SDS_P1;SDS_P2;PMS_P1;PMS_P2;Temp;Humidity;BMP_temperature;BMP_pressure;BME280_temperature;BME280_humidity;BME280_pressure;Samples;Min_cycle;Max_cycle;Signal;HPM_P1;HPM_P2
2023/02/03 00:02:04;;;;;;;7.10;1.80;;;;;;;;;;5002974;28;20708;-71
2023/02/03 00:04:29;;;;;;;5.70;1.77;;;;;;;;;;4985894;28;20189;-71
2023/02/03 00:06:55;;;;;;;4.73;1.60;;;;;;;;;;5006476;28;20185;-71
2023/02/03 00:09:20;;;;;;;12.27;2.00;;;;;;;;;;5006281;28;20723;-71
2023/02/03 00:11:45;;;;;;;4.33;1.83;;;;;;;;;;5006276;28;20303;-71
2023/02/03 00:14:11;;;;;;;11.40;1.60;;;;;;;;;;5009657;28;20263;-70
2023/02/03 00:16:36;;;;;;;10.17;2.07;;;;;;;;;;5009245;28;20528;-70
2023/02/03 00:19:01;;;;;;;7.83;2.10;;;;;;;;;;5009089;28;20181;-70
2023/02/03 00:21:26;;;;;;;10.07;1.80;;;;;;;;;;5008070;28;20227;-71
2023/02/03 00:23:53;;;;;;;9.50;1.77;;;;;;;;;;5008620;28;20235;-71
2023/02/03 00:26:18;;;;;;;4.63;1.63;;;;;;;;;;5007725;28;20181;-71
2023/02/03 00:28:44;;;;;;;3.40;1.03;;;;;;;;;;5006781;28;20431;-70
2023/02/03 00:31:16;;;;;;;4.00;1.67;;;;;;;;;;5006421;28;20225;-71
2023/02/03 00:33:41;;;;;;;6.63;2.03;;;;;;;;;;5006441;28;20624;-71
2023/02/03 00:36:07;;;;;;;6.50;1.30;;;;;;;;;;5001642;28;20436;-71
2023/02/03 00:38:32;;;;;;;8.80;1.37;;;;;;;;;;5000402;28;20181;-70
2023/02/03 00:40:57;;;;;;;8.70;2.23;;;;;;;;;;5005061;28;20255;-71
2023/02/03 00:43:23;;;;;;;4.33;1.30;;;;;;;;;;5002502;28;20208;-71
2023/02/03 00:45:48;;;;;;;6.37;1.57;;;;;;;;;;5002954;28;20184;-71
2023/02/03 00:48:13;;;;;;;7.77;1.57;;;;;;;;;;4998103;28;20188;-71
2023/02/03 00:50:39;;;;;;;6.47;2.30;;;;;;;;;;4996790;28;20288;-71
2023/02/03 00:53:04;;;;;;;7.00;1.60;;;;;;;;;;4980715;28;20199;-71
2023/02/03 00:55:29;;;;;;;6.60;1.60;;;;;;;;;;5002011;28;20263;-71
2023/02/03 00:57:54;;;;;;;6.70;1.80;;;;;;;;;;4979829;28;20254;-71
2023/02/03 01:00:20;;;;;;;14.93;3.20;;;;;;;;;;5000813;28;20700;-71
2023/02/03 01:02:45;;;;;;;8.77;1.70;;;;;;;;;;5002131;28;20213;-71
2023/02/03 01:05:10;;;;;;;3.87;1.53;;;;;;;;;;5001409;28;20181;-71
2023/02/03 01:07:36;;;;;;;10.20;2.13;;;;;;;;;;5004130;28;20243;-71
2023/02/03 01:10:02;;;;;;;9.83;1.90;;;;;;;;;;5003036;28;20178;-71
2023/02/03 01:12:30;;;;;;;9.30;2.10;;;;;;;;;;5006444;28;20223;-71
2023/02/03 01:14:55;;;;;;;5.10;1.70;;;;;;;;;;5007360;28;20188;-71
2023/02/03 01:17:21;;;;;;;9.73;2.50;;;;;;;;;;5004363;28;20427;-71
2023/02/03 01:19:46;;;;;;;5.53;1.63;;;;;;;;;;5006338;28;22137;-70
2023/02/03 01:22:11;;;;;;;10.23;3.03;;;;;;;;;;5008980;28;20206;-70
2023/02/03 01:24:37;;;;;;;6.97;2.20;;;;;;;;;;5007873;28;20181;-70
2023/02/03 01:27:02;;;;;;;6.07;1.53;;;;;;;;;;5010219;28;20197;-71
2023/02/03 01:29:27;;;;;;;6.30;1.70;;;;;;;;;;5010798;28;20213;-71
2023/02/03 01:31:52;;;;;;;7.87;2.00;;;;;;;;;;5008863;28;20600;-71
2023/02/03 01:34:18;;;;;;;6.60;1.70;;;;;;;;;;5008503;28;20638;-70
2023/02/03 01:36:44;;;;;;;7.50;1.67;;;;;;;;;;5005019;28;20178;-71
2023/02/03 01:39:11;;;;;;;6.80;1.47;;;;;;;;;;5007537;28;20241;-71
2023/02/03 01:41:37;;;;;;;10.27;2.10;;;;;;;;;;4987521;28;20502;-70
2023/02/03 01:44:22;;;;;;;6.97;1.43;;;;;;;;;;5002996;28;20280;-70
2023/02/03 01:46:48;;;;;;;7.33;2.10;;;;;;;;;;5005065;28;20434;-71
2023/02/03 01:49:18;;;;;;;8.13;2.03;;;;;;;;;;5002677;28;20447;-71
2023/02/03 01:51:44;;;;;;;6.83;1.80;;;;;;;;;;4997730;28;20499;-71
2023/02/03 01:54:18;;;;;;;8.80;1.97;;;;;;;;;;4998515;28;20550;-71
2023/02/03 01:56:45;;;;;;;7.10;1.80;;;;;;;;;;4999424;28;20987;-70
2023/02/03 01:59:11;;;;;;;6.23;1.90;;;;;;;;;;4999666;28;20442;-70
2023/02/03 02:01:36;;;;;;;9.00;1.90;;;;;;;;;;4996704;28;20443;-71
2023/02/03 02:04:04;;;;;;;10.07;2.00;;;;;;;;;;5001113;28;20507;-71
2023/02/03 02:06:29;;;;;;;3.57;1.40;;;;;;;;;;5002841;28;20638;-70
2023/02/03 02:08:56;;;;;;;9.13;1.83;;;;;;;;;;5001559;28;20506;-71
2023/02/03 02:11:22;;;;;;;9.03;1.97;;;;;;;;;;5002581;28;20247;-71
2023/02/03 02:13:49;;;;;;;8.00;1.90;;;;;;;;;;5004369;28;20431;-72
2023/02/03 02:16:15;;;;;;;7.67;1.90;;;;;;;;;;5003911;28;20193;-70
2023/02/03 02:18:55;;;;;;;7.53;2.43;;;;;;;;;;5003476;28;20493;-72
2023/02/03 02:21:20;;;;;;;8.80;1.90;;;;;;;;;;5005126;28;20734;-73
2023/02/03 02:24:18;;;;;;;7.60;1.53;;;;;;;;;;5006400;28;20439;-71
2023/02/03 02:26:49;;;;;;;9.33;2.00;;;;;;;;;;4981059;28;20889;-70
2023/02/03 02:29:26;;;;;;;7.47;1.80;;;;;;;;;;4986971;28;20431;-70
2023/02/03 02:31:54;;;;;;;8.77;1.83;;;;;;;;;;5003374;28;20479;-71
2023/02/03 02:34:29;;;;;;;9.63;2.03;;;;;;;;;;5002366;28;20432;-70
2023/02/03 02:37:06;;;;;;;7.50;1.70;;;;;;;;;;5003381;28;21059;-71
2023/02/03 02:39:49;;;;;;;6.03;2.17;;;;;;;;;;4996892;28;20439;-71
2023/02/03 02:42:24;;;;;;;7.53;1.67;;;;;;;;;;5005245;28;20534;-71
2023/02/03 02:44:52;;;;;;;11.27;2.90;;;;;;;;;;5001364;28;20450;-71
2023/02/03 02:47:18;;;;;;;8.83;2.53;;;;;;;;;;4993907;28;20498;-71
2023/02/03 02:49:45;;;;;;;5.60;1.67;;;;;;;;;;5001356;28;20454;-72
2023/02/03 02:52:12;;;;;;;15.37;2.83;;;;;;;;;;5001795;28;20488;-71
2023/02/03 02:54:39;;;;;;;7.20;2.00;;;;;;;;;;5002482;28;20453;-71
2023/02/03 02:57:08;;;;;;;11.60;2.03;;;;;;;;;;5000442;28;20435;-70
2023/02/03 02:59:33;;;;;;;8.43;2.00;;;;;;;;;;5002081;28;20502;-71
2023/02/03 03:01:58;;;;;;;7.73;2.27;;;;;;;;;;5002719;28;20472;-71
2023/02/03 03:04:25;;;;;;;12.27;2.77;;;;;;;;;;4998677;28;20185;-71
2023/02/03 03:06:58;;;;;;;8.20;2.20;;;;;;;;;;5000007;28;20193;-71
2023/02/03 03:09:25;;;;;;;12.60;2.30;;;;;;;;;;4981931;28;20437;-71
2023/02/03 03:11:55;;;;;;;9.57;2.03;;;;;;;;;;5002761;28;20486;-71
2023/02/03 03:14:22;;;;;;;7.80;2.30;;;;;;;;;;5000983;28;20486;-71
2023/02/03 03:16:59;;;;;;;8.33;1.77;;;;;;;;;;5003737;28;20424;-71
2023/02/03 03:19:27;;;;;;;13.33;2.53;;;;;;;;;;5006416;28;20420;-71
2023/02/03 03:21:54;;;;;;;14.93;2.43;;;;;;;;;;4999310;28;20456;-71
2023/02/03 03:24:22;;;;;;;8.10;2.20;;;;;;;;;;4981041;28;20435;-71
2023/02/03 03:26:51;;;;;;;12.20;2.13;;;;;;;;;;4986498;28;20440;-71
2023/02/03 03:29:39;;;;;;;10.70;2.10;;;;;;;;;;5002827;28;20435;-71
2023/02/03 03:32:04;;;;;;;9.67;2.43;;;;;;;;;;4995173;28;20483;-70
2023/02/03 03:34:30;;;;;;;7.37;2.10;;;;;;;;;;5009625;28;20443;-71
2023/02/03 03:37:10;;;;;;;8.23;2.37;;;;;;;;;;5010699;28;20638;-71
2023/02/03 03:39:35;;;;;;;8.47;1.87;;;;;;;;;;5005710;28;20901;-71
2023/02/03 03:42:03;;;;;;;14.23;2.33;;;;;;;;;;5005342;28;20447;-71
2023/02/03 03:44:31;;;;;;;9.00;1.67;;;;;;;;;;5005749;28;20613;-71
2023/02/03 03:47:11;;;;;;;8.90;1.87;;;;;;;;;;5005582;28;20435;-71
2023/02/03 03:49:39;;;;;;;11.30;3.40;;;;;;;;;;5003981;28;20438;-70
2023/02/03 03:52:07;;;;;;;9.53;2.10;;;;;;;;;;5000707;28;20466;-71
2023/02/03 03:54:33;;;;;;;7.30;2.00;;;;;;;;;;5005365;28;20438;-71
2023/02/03 03:57:01;;;;;;;12.40;3.00;;;;;;;;;;5001683;28;20851;-70
2023/02/03 03:59:29;;;;;;;9.67;2.30;;;;;;;;;;5001851;28;20455;-71
2023/02/03 04:01:54;;;;;;;8.83;1.90;;;;;;;;;;4982992;28;20862;-71
2023/02/03 04:04:22;;;;;;;11.53;2.23;;;;;;;;;;5002889;28;20438;-72
2023/02/03 04:06:47;;;;;;;7.40;2.17;;;;;;;;;;5004805;28;20185;-72
2023/02/03 04:09:12;;;;;;;10.27;2.07;;;;;;;;;;4985440;28;21024;-71
2023/02/03 04:14:21;;;;;;;10.03;2.00;;;;;;;;;;4999880;28;20192;-72
2023/02/03 04:16:46;;;;;;;8.53;2.37;;;;;;;;;;5003410;28;20825;-72
2023/02/03 04:19:12;;;;;;;8.87;2.80;;;;;;;;;;4995569;28;20274;-72
2023/02/03 04:21:37;;;;;;;11.10;2.90;;;;;;;;;;5000164;28;20208;-72
2023/02/03 04:24:02;;;;;;;10.77;2.50;;;;;;;;;;4998690;28;20560;-72
2023/02/03 04:26:27;;;;;;;7.33;2.30;;;;;;;;;;5000469;28;20216;-72
2023/02/03 04:28:53;;;;;;;14.00;2.47;;;;;;;;;;4999335;28;20184;-72
2023/02/03 04:31:18;;;;;;;10.60;2.00;;;;;;;;;;4998052;28;20569;-72
2023/02/03 04:33:43;;;;;;;6.30;2.43;;;;;;;;;;5000919;28;20192;-72
2023/02/03 04:36:08;;;;;;;12.10;2.50;;;;;;;;;;4999036;28;20179;-72
2023/02/03 04:38:34;;;;;;;15.03;2.90;;;;;;;;;;5001780;28;20176;-72
2023/02/03 04:40:59;;;;;;;10.80;2.40;;;;;;;;;;4999334;28;20204;-72
2023/02/03 04:43:24;;;;;;;7.40;2.37;;;;;;;;;;5002017;28;20209;-72
2023/02/03 04:45:49;;;;;;;10.47;2.40;;;;;;;;;;4978261;28;20292;-70
2023/02/03 04:48:15;;;;;;;13.13;2.57;;;;;;;;;;5000299;28;20600;-72
2023/02/03 04:50:40;;;;;;;10.93;2.03;;;;;;;;;;4996968;28;20243;-72
2023/02/03 04:53:05;;;;;;;8.73;2.50;;;;;;;;;;4998437;28;20874;-72
2023/02/03 04:55:31;;;;;;;7.73;2.33;;;;;;;;;;4986931;28;20291;-72
2023/02/03 04:57:57;;;;;;;8.77;2.20;;;;;;;;;;5008812;28;20690;-71
2023/02/03 05:00:22;;;;;;;9.57;1.63;;;;;;;;;;5001124;28;20279;-72
2023/02/03 05:02:47;;;;;;;13.30;2.13;;;;;;;;;;5000026;28;20420;-71
2023/02/03 05:05:12;;;;;;;9.90;2.40;;;;;;;;;;4987558;28;20276;-71
2023/02/03 05:07:38;;;;;;;9.30;2.17;;;;;;;;;;5006750;28;20185;-70
2023/02/03 05:10:03;;;;;;;11.80;3.33;;;;;;;;;;5005035;28;20264;-72
2023/02/03 05:12:28;;;;;;;11.70;2.10;;;;;;;;;;5004131;28;20625;-70
2023/02/03 05:14:53;;;;;;;7.77;2.13;;;;;;;;;;5000656;28;20253;-70
2023/02/03 05:17:19;;;;;;;13.40;3.50;;;;;;;;;;5000820;28;20260;-70
2023/02/03 05:19:44;;;;;;;9.03;2.00;;;;;;;;;;5005027;28;20184;-70
2023/02/03 05:22:09;;;;;;;13.53;2.60;;;;;;;;;;5000821;28;20201;-70
2023/02/03 05:24:35;;;;;;;9.50;2.60;;;;;;;;;;4983456;28;20193;-71
2023/02/03 05:27:00;;;;;;;8.73;2.57;;;;;;;;;;5004512;28;20251;-71
2023/02/03 05:29:25;;;;;;;8.83;2.30;;;;;;;;;;5006364;28;20204;-71
2023/02/03 05:31:50;;;;;;;11.07;2.53;;;;;;;;;;5007732;28;20591;-71
2023/02/03 05:34:16;;;;;;;9.07;2.30;;;;;;;;;;5012439;28;20228;-71
2023/02/03 05:36:41;;;;;;;12.30;4.37;;;;;;;;;;4985948;28;20196;-71
2023/02/03 05:39:06;;;;;;;17.70;3.53;;;;;;;;;;5006092;28;20177;-71
2023/02/03 05:44:15;;;;;;;11.10;3.10;;;;;;;;;;5007660;28;20196;-72
2023/02/03 05:46:41;;;;;;;12.07;3.93;;;;;;;;;;5003520;28;20447;-73
2023/02/03 05:49:06;;;;;;;10.73;2.70;;;;;;;;;;5001852;28;20192;-72
2023/02/03 05:51:31;;;;;;;12.07;2.60;;;;;;;;;;4999117;28;20275;-70
2023/02/03 05:53:57;;;;;;;11.73;2.93;;;;;;;;;;5000950;28;20565;-71
2023/02/03 05:56:22;;;;;;;12.67;2.23;;;;;;;;;;5008814;28;20239;-72
2023/02/03 05:58:50;;;;;;;8.90;2.03;;;;;;;;;;4998289;28;20181;-71
2023/02/03 06:01:16;;;;;;;8.37;2.60;;;;;;;;;;4993214;28;20201;-71
2023/02/03 06:03:41;;;;;;;10.97;2.60;;;;;;;;;;5010731;28;20458;-70
2023/02/03 06:06:06;;;;;;;14.87;2.63;;;;;;;;;;5003716;28;20583;-70
2023/02/03 06:08:31;;;;;;;11.60;2.60;;;;;;;;;;5001176;28;20189;-70
2023/02/03 06:10:58;;;;;;;10.90;3.33;;;;;;;;;;4998824;28;20773;-70
2023/02/03 06:13:23;;;;;;;12.17;2.50;;;;;;;;;;4981644;28;20182;-73
2023/02/03 06:15:49;;;;;;;12.30;3.00;;;;;;;;;;5003086;28;20513;-72
2023/02/03 06:18:14;;;;;;;11.57;2.40;;;;;;;;;;5001464;28;20173;-72
2023/02/03 06:20:39;;;;;;;14.70;3.53;;;;;;;;;;5003718;28;20280;-72
2023/02/03 06:23:04;;;;;;;15.57;3.13;;;;;;;;;;5005056;28;20184;-72
2023/02/03 06:25:31;;;;;;;12.43;3.00;;;;;;;;;;4992286;28;20704;-71
2023/02/03 06:27:56;;;;;;;10.43;2.80;;;;;;;;;;4999359;28;20185;-72
2023/02/03 06:30:22;;;;;;;13.60;3.53;;;;;;;;;;4982276;28;20468;-72
2023/02/03 06:32:47;;;;;;;15.93;3.27;;;;;;;;;;4997205;28;20519;-70
2023/02/03 06:35:13;;;;;;;10.70;3.40;;;;;;;;;;4998118;28;20655;-71
2023/02/03 06:37:38;;;;;;;15.33;3.33;;;;;;;;;;4999726;28;20374;-71
2023/02/03 06:40:04;;;;;;;22.80;3.73;;;;;;;;;;5003467;28;20633;-72
2023/02/03 06:42:29;;;;;;;18.50;4.00;;;;;;;;;;4999519;28;20198;-72
2023/02/03 06:44:54;;;;;;;19.23;3.93;;;;;;;;;;4996286;28;20185;-72
2023/02/03 06:47:20;;;;;;;19.53;4.00;;;;;;;;;;4997381;28;20609;-72
2023/02/03 06:49:45;;;;;;;14.20;3.77;;;;;;;;;;4986523;28;20181;-72
2023/02/03 06:52:10;;;;;;;20.60;4.27;;;;;;;;;;5002796;28;20201;-72
2023/02/03 06:54:36;;;;;;;14.00;4.17;;;;;;;;;;5002992;28;20177;-72
2023/02/03 06:57:01;;;;;;;15.13;4.03;;;;;;;;;;4982631;28;20186;-72
2023/02/03 06:59:26;;;;;;;12.50;4.37;;;;;;;;;;5001713;28;20181;-71
2023/02/03 07:01:51;;;;;;;17.37;3.50;;;;;;;;;;4984745;28;20238;-72
2023/02/03 07:04:17;;;;;;;14.67;3.80;;;;;;;;;;5004002;28;20196;-72
2023/02/03 07:06:42;;;;;;;19.03;4.40;;;;;;;;;;5005687;28;20181;-72
2023/02/03 07:09:07;;;;;;;15.80;4.20;;;;;;;;;;5003519;28;20593;-73
2023/02/03 07:11:33;;;;;;;18.10;3.43;;;;;;;;;;4999847;28;20213;-73
2023/02/03 07:13:58;;;;;;;27.73;5.10;;;;;;;;;;5002213;28;20188;-70
2023/02/03 07:16:23;;;;;;;21.70;4.57;;;;;;;;;;5003016;28;20622;-70
2023/02/03 07:18:49;;;;;;;18.97;4.27;;;;;;;;;;5003204;28;20762;-72
2023/02/03 07:21:15;;;;;;;17.43;4.07;;;;;;;;;;5001777;28;20208;-72
2023/02/03 07:23:40;;;;;;;16.27;3.73;;;;;;;;;;5003629;28;20184;-72
2023/02/03 07:26:06;;;;;;;23.50;3.97;;;;;;;;;;4985447;28;20211;-72
2023/02/03 07:28:32;;;;;;;23.73;4.43;;;;;;;;;;4998040;28;20227;-72
2023/02/03 07:30:57;;;;;;;16.70;4.40;;;;;;;;;;4999336;28;20514;-72
2023/02/03 07:33:23;;;;;;;26.77;5.80;;;;;;;;;;5001316;28;20204;-71
2023/02/03 07:35:52;;;;;;;18.60;4.17;;;;;;;;;;4999360;28;20208;-72
2023/02/03 07:38:17;;;;;;;16.67;4.60;;;;;;;;;;5001126;28;20264;-72
2023/02/03 07:40:42;;;;;;;19.87;5.40;;;;;;;;;;4997862;28;20589;-72
2023/02/03 07:43:08;;;;;;;24.73;4.53;;;;;;;;;;4996428;28;20189;-72
2023/02/03 07:45:33;;;;;;;32.90;6.87;;;;;;;;;;4999785;28;20859;-72
2023/02/03 07:47:58;;;;;;;25.43;4.40;;;;;;;;;;4997620;28;20189;-71
2023/02/03 07:50:23;;;;;;;21.10;5.83;;;;;;;;;;4999721;28;20235;-71
2023/02/03 07:52:49;;;;;;;16.07;4.13;;;;;;;;;;4994531;28;20204;-72
2023/02/03 07:55:14;;;;;;;28.93;5.60;;;;;;;;;;4999670;28;20276;-72
2023/02/03 07:57:42;;;;;;;24.57;5.37;;;;;;;;;;4999987;28;20181;-71
2023/02/03 08:00:08;;;;;;;28.50;4.97;;;;;;;;;;5002648;28;20188;-71
2023/02/03 08:02:33;;;;;;;26.40;4.93;;;;;;;;;;5000338;28;20447;-72
2023/02/03 08:04:58;;;;;;;26.77;5.20;;;;;;;;;;4997004;28;20479;-71
2023/02/03 08:07:24;;;;;;;28.90;5.00;;;;;;;;;;4994637;28;20320;-72
2023/02/03 08:09:49;;;;;;;20.50;5.63;;;;;;;;;;4975834;28;20192;-72
2023/02/03 08:12:14;;;;;;;31.27;5.47;;;;;;;;;;4999746;28;20332;-72
2023/02/03 08:14:39;;;;;;;20.57;6.27;;;;;;;;;;5000030;28;20546;-72
2023/02/03 08:17:05;;;;;;;23.53;4.63;;;;;;;;;;4996250;28;20185;-72
2023/02/03 08:19:30;;;;;;;28.53;5.93;;;;;;;;;;4999823;28;20173;-72
2023/02/03 08:21:55;;;;;;;23.80;5.20;;;;;;;;;;5001886;28;20205;-71
2023/02/03 08:24:21;;;;;;;25.60;5.40;;;;;;;;;;4998032;28;20181;-72
2023/02/03 08:26:46;;;;;;;21.53;4.90;;;;;;;;;;4998880;28;20185;-71
2023/02/03 08:29:11;;;;;;;25.20;4.83;;;;;;;;;;4997628;28;20838;-71
2023/02/03 08:31:36;;;;;;;25.03;5.27;;;;;;;;;;5001476;28;20205;-71
2023/02/03 08:34:02;;;;;;;39.83;5.63;;;;;;;;;;4998706;28;20223;-72
2023/02/03 08:36:27;;;;;;;26.70;5.30;;;;;;;;;;5002488;28;20184;-73
2023/02/03 08:38:52;;;;;;;27.37;6.70;;;;;;;;;;5002112;28;20263;-72
2023/02/03 08:41:18;;;;;;;35.83;6.63;;;;;;;;;;4996285;28;20205;-72
2023/02/03 08:43:44;;;;;;;28.37;5.57;;;;;;;;;;4998518;28;20650;-72
2023/02/03 08:46:10;;;;;;;23.10;6.27;;;;;;;;;;4996130;28;20498;-72
2023/02/03 08:48:36;;;;;;;29.50;6.13;;;;;;;;;;4999392;28;20216;-71
2023/02/03 08:51:01;;;;;;;30.03;6.00;;;;;;;;;;5002280;28;20923;-72
2023/02/03 08:53:26;;;;;;;30.53;5.87;;;;;;;;;;4998803;28;20177;-71
2023/02/03 08:55:52;;;;;;;38.10;5.90;;;;;;;;;;5000648;28;20864;-72
2023/02/03 08:58:17;;;;;;;35.40;7.20;;;;;;;;;;4998935;28;20616;-71
2023/02/03 09:00:43;;;;;;;28.43;7.20;;;;;;;;;;4998461;28;20203;-71
2023/02/03 09:03:08;;;;;;;40.80;7.53;;;;;;;;;;5002078;28;20184;-72
2023/02/03 09:05:33;;;;;;;36.83;6.80;;;;;;;;;;4997117;28;20173;-72
2023/02/03 09:07:59;;;;;;;24.57;5.93;;;;;;;;;;4997704;28;20195;-71
2023/02/03 09:10:24;;;;;;;29.37;6.40;;;;;;;;;;4998034;28;20196;-69
2023/02/03 09:12:49;;;;;;;32.47;6.80;;;;;;;;;;4997647;28;20205;-70
2023/02/03 09:15:15;;;;;;;28.20;6.77;;;;;;;;;;4997222;28;20248;-70
2023/02/03 09:17:40;;;;;;;36.10;7.00;;;;;;;;;;4997838;28;20190;-70
2023/02/03 09:20:06;;;;;;;27.63;6.63;;;;;;;;;;4997622;28;20560;-71
2023/02/03 09:22:31;;;;;;;31.30;7.10;;;;;;;;;;5001255;28;20315;-70
2023/02/03 09:24:56;;;;;;;35.40;7.20;;;;;;;;;;5002357;28;20185;-71
2023/02/03 09:27:22;;;;;;;37.70;7.63;;;;;;;;;;4999843;28;20213;-71
2023/02/03 09:29:47;;;;;;;45.83;7.17;;;;;;;;;;4994138;28;20184;-71
2023/02/03 09:32:12;;;;;;;38.53;8.50;;;;;;;;;;4997037;28;20213;-71
2023/02/03 09:34:40;;;;;;;40.13;7.10;;;;;;;;;;4998523;28;20177;-71
2023/02/03 09:37:05;;;;;;;37.63;7.73;;;;;;;;;;4999808;28;20185;-71
2023/02/03 09:39:30;;;;;;;38.60;7.77;;;;;;;;;;5004130;28;20494;-71
2023/02/03 09:42:15;;;;;;;40.53;9.50;;;;;;;;;;4999539;28;20219;-71
2023/02/03 09:44:48;;;;;;;38.37;7.70;;;;;;;;;;4996274;28;20275;-70
2023/02/03 09:47:19;;;;;;;42.30;7.20;;;;;;;;;;5004663;28;20436;-69
2023/02/03 09:49:49;;;;;;;40.53;7.70;;;;;;;;;;5005343;28;20554;-70
2023/02/03 09:52:17;;;;;;;35.20;7.67;;;;;;;;;;5001852;28;20479;-70
2023/02/03 09:54:46;;;;;;;38.50;7.90;;;;;;;;;;5007574;28;20924;-70
2023/02/03 09:57:31;;;;;;;39.80;7.70;;;;;;;;;;4979403;28;20490;-70
2023/02/03 09:59:58;;;;;;;37.63;6.77;;;;;;;;;;4998050;28;20428;-70
2023/02/03 10:02:23;;;;;;;40.97;7.73;;;;;;;;;;5000203;28;20448;-70
2023/02/03 10:05:05;;;;;;;47.17;7.47;;;;;;;;;;5003342;28;20548;-70
2023/02/03 10:07:49;;;;;;;33.30;8.43;;;;;;;;;;5001774;28;20176;-71
2023/02/03 10:10:15;;;;;;;36.93;7.47;;;;;;;;;;4999115;28;20554;-70
2023/02/03 10:12:50;;;;;;;37.30;7.97;;;;;;;;;;5002690;28;20559;-70
2023/02/03 10:15:32;;;;;;;42.03;8.80;;;;;;;;;;5003911;28;20187;-68
2023/02/03 10:18:01;;;;;;;33.40;8.13;;;;;;;;;;5004059;28;20514;-68
2023/02/03 10:20:34;;;;;;;42.40;8.70;;;;;;;;;;4997275;28;20862;-68
2023/02/03 10:23:03;;;;;;;34.07;7.37;;;;;;;;;;5000409;28;20497;-68
2023/02/03 10:25:31;;;;;;;38.00;7.33;;;;;;;;;;5003551;28;20435;-68
2023/02/03 10:27:59;;;;;;;38.60;7.77;;;;;;;;;;4998094;28;20452;-68
2023/02/03 10:30:25;;;;;;;33.40;7.00;;;;;;;;;;5000544;28;20620;-68
2023/02/03 10:32:53;;;;;;;31.03;8.23;;;;;;;;;;5001422;28;20487;-69
2023/02/03 10:35:20;;;;;;;44.13;8.10;;;;;;;;;;5004584;28;20436;-68
2023/02/03 10:37:49;;;;;;;35.73;7.20;;;;;;;;;;5000619;28;20446;-68
2023/02/03 10:40:15;;;;;;;32.83;7.37;;;;;;;;;;5002105;28;20452;-68
2023/02/03 10:45:25;;;;;;;38.60;7.90;;;;;;;;;;5002575;28;20820;-69
2023/02/03 10:47:52;;;;;;;37.20;9.03;;;;;;;;;;4996667;28;20439;-68
2023/02/03 10:50:19;;;;;;;38.87;8.40;;;;;;;;;;4996973;28;20231;-68
2023/02/03 10:52:44;;;;;;;38.03;8.03;;;;;;;;;;5001353;28;20569;-69
2023/02/03 10:55:25;;;;;;;44.33;9.73;;;;;;;;;;5001469;28;20502;-69
2023/02/03 10:57:53;;;;;;;34.27;7.90;;;;;;;;;;5005369;28;20212;-69
2023/02/03 11:00:26;;;;;;;42.00;8.10;;;;;;;;;;5004013;28;20454;-69
2023/02/03 11:03:20;;;;;;;54.53;10.10;;;;;;;;;;4980532;28;20466;-69
2023/02/03 11:05:46;;;;;;;32.60;7.47;;;;;;;;;;5005586;28;20438;-69
2023/02/03 11:08:14;;;;;;;40.90;7.40;;;;;;;;;;4996605;28;20424;-69
2023/02/03 11:10:42;;;;;;;39.87;9.10;;;;;;;;;;5005278;28;20580;-68
2023/02/03 11:13:20;;;;;;;49.43;9.37;;;;;;;;;;4986171;28;20431;-69
2023/02/03 11:15:57;;;;;;;40.03;8.50;;;;;;;;;;5003874;28;20454;-69
2023/02/03 11:18:34;;;;;;;33.80;8.90;;;;;;;;;;4996683;28;21361;-69
2023/02/03 11:21:04;;;;;;;55.47;9.27;;;;;;;;;;5004676;28;20964;-68
2023/02/03 11:23:30;;;;;;;38.33;9.00;;;;;;;;;;5002466;28;20425;-68
2023/02/03 11:25:55;;;;;;;37.27;9.67;;;;;;;;;;5007306;28;20443;-68
2023/02/03 11:28:20;;;;;;;50.83;9.33;;;;;;;;;;5005847;28;20185;-69
2023/02/03 11:30:53;;;;;;;43.53;9.57;;;;;;;;;;5008487;28;20208;-69
2023/02/03 11:33:19;;;;;;;35.13;8.60;;;;;;;;;;5009238;28;20176;-69
2023/02/03 11:35:58;;;;;;;42.43;10.30;;;;;;;;;;5007566;28;20424;-69
2023/02/03 11:38:37;;;;;;;35.57;7.73;;;;;;;;;;5006701;28;20426;-68
2023/02/03 11:41:02;;;;;;;37.80;8.80;;;;;;;;;;4999649;28;20450;-69
2023/02/03 11:43:28;;;;;;;39.80;8.03;;;;;;;;;;5004675;28;20424;-69
2023/02/03 11:45:58;;;;;;;55.93;9.40;;;;;;;;;;5003524;28;20184;-69
2023/02/03 11:48:43;;;;;;;40.17;8.27;;;;;;;;;;5004296;28;20179;-69
2023/02/03 11:51:09;;;;;;;44.83;8.60;;;;;;;;;;5003227;28;20468;-69
2023/02/03 11:53:40;;;;;;;37.50;8.63;;;;;;;;;;4999565;28;20806;-68
2023/02/03 11:56:05;;;;;;;40.10;9.03;;;;;;;;;;4994740;28;20189;-70
2023/02/03 11:58:49;;;;;;;38.73;8.93;;;;;;;;;;5001783;28;20438;-69
2023/02/03 12:01:25;;;;;;;43.73;9.20;;;;;;;;;;5002439;28;20196;-69
2023/02/03 12:04:01;;;;;;;38.70;9.80;;;;;;;;;;5002570;28;20500;-69
2023/02/03 12:06:37;;;;;;;35.07;8.20;;;;;;;;;;5003848;28;20459;-69
2023/02/03 12:09:07;;;;;;;44.60;8.97;;;;;;;;;;4987499;28;21556;-69
2023/02/03 12:11:40;;;;;;;46.17;9.70;;;;;;;;;;5002181;28;20466;-69
2023/02/03 12:14:16;;;;;;;42.50;8.80;;;;;;;;;;5003510;28;20427;-68
2023/02/03 12:16:54;;;;;;;42.20;8.50;;;;;;;;;;4992176;28;20433;-69
2023/02/03 12:19:22;;;;;;;43.93;7.10;;;;;;;;;;5002310;28;20473;-68
2023/02/03 12:22:08;;;;;;;37.87;8.00;;;;;;;;;;5003559;28;20455;-68
2023/02/03 12:24:39;;;;;;;36.00;8.63;;;;;;;;;;5002248;28;20443;-68
2023/02/03 12:27:17;;;;;;;32.90;8.50;;;;;;;;;;4996717;28;20523;-68
2023/02/03 12:29:45;;;;;;;24.57;6.90;;;;;;;;;;4979968;28;20459;-68
2023/02/03 12:32:16;;;;;;;41.33;8.07;;;;;;;;;;4994435;28;20876;-68
2023/02/03 12:34:50;;;;;;;29.53;7.10;;;;;;;;;;4997354;28;20425;-68
2023/02/03 12:37:20;;;;;;;30.37;6.77;;;;;;;;;;5000629;28;20788;-70
2023/02/03 12:39:53;;;;;;;32.60;8.23;;;;;;;;;;4980134;28;20435;-70
2023/02/03 12:42:33;;;;;;;30.17;7.17;;;;;;;;;;5000194;28;20464;-70
2023/02/03 12:45:02;;;;;;;30.30;5.40;;;;;;;;;;5000348;28;20431;-69
2023/02/03 12:47:42;;;;;;;28.83;6.50;;;;;;;;;;4995586;28;20474;-70
2023/02/03 12:50:17;;;;;;;25.83;6.70;;;;;;;;;;4998693;28;20432;-71
2023/02/03 12:52:45;;;;;;;28.97;6.33;;;;;;;;;;4993788;28;20490;-69
2023/02/03 12:55:17;;;;;;;31.77;6.67;;;;;;;;;;4997239;28;21459;-69
2023/02/03 12:57:53;;;;;;;30.27;7.17;;;;;;;;;;4998144;28;20436;-70
2023/02/03 13:00:25;;;;;;;33.13;7.50;;;;;;;;;;4993063;28;20466;-70
2023/02/03 13:03:05;;;;;;;44.57;8.53;;;;;;;;;;4991258;28;20429;-69
2023/02/03 13:05:50;;;;;;;35.83;7.40;;;;;;;;;;5000534;28;20440;-69
2023/02/03 13:08:48;;;;;;;39.53;8.73;;;;;;;;;;5001619;28;20585;-70
2023/02/03 13:11:19;;;;;;;40.90;8.27;;;;;;;;;;4976720;28;20562;-70
2023/02/03 13:13:50;;;;;;;41.40;7.37;;;;;;;;;;5007078;28;20427;-69
2023/02/03 13:16:19;;;;;;;32.37;7.63;;;;;;;;;;5008352;28;20431;-69
2023/02/03 13:18:46;;;;;;;35.23;7.27;;;;;;;;;;5005132;28;20515;-69
2023/02/03 13:21:12;;;;;;;37.80;7.60;;;;;;;;;;5006073;28;20459;-70
2023/02/03 13:23:43;;;;;;;31.40;7.50;;;;;;;;;;5005510;28;20438;-69
2023/02/03 13:26:09;;;;;;;28.17;7.37;;;;;;;;;;4979340;28;20603;-70
2023/02/03 13:28:50;;;;;;;38.00;7.97;;;;;;;;;;5006090;28;20529;-70
2023/02/03 13:31:21;;;;;;;37.27;7.50;;;;;;;;;;5008966;28;20471;-69
2023/02/03 13:33:53;;;;;;;37.50;7.40;;;;;;;;;;4984948;28;20432;-69
2023/02/03 13:36:30;;;;;;;43.90;8.50;;;;;;;;;;5006547;28;20431;-69
2023/02/03 13:39:21;;;;;;;36.23;7.80;;;;;;;;;;5008484;28;20515;-69
2023/02/03 13:41:51;;;;;;;32.90;8.20;;;;;;;;;;5009315;28;20462;-69
2023/02/03 13:44:22;;;;;;;42.87;10.87;;;;;;;;;;5007259;28;20435;-69
2023/02/03 13:46:48;;;;;;;47.03;9.23;;;;;;;;;;5001933;28;20443;-69
2023/02/03 13:49:45;;;;;;;54.20;9.00;;;;;;;;;;5003813;28;20928;-69
2023/02/03 13:52:30;;;;;;;45.47;9.90;;;;;;;;;;4995275;28;20482;-70
2023/02/03 13:54:56;;;;;;;46.13;10.33;;;;;;;;;;5004691;28;20490;-70
2023/02/03 13:57:25;;;;;;;60.07;11.20;;;;;;;;;;5003166;28;20893;-69
2023/02/03 13:59:50;;;;;;;43.20;8.40;;;;;;;;;;5000122;28;20173;-70
2023/02/03 14:02:18;;;;;;;40.60;8.50;;;;;;;;;;4998668;28;20440;-69
2023/02/03 14:04:43;;;;;;;44.23;10.50;;;;;;;;;;4998603;28;20177;-69
2023/02/03 14:07:27;;;;;;;43.57;9.70;;;;;;;;;;4998262;28;20436;-69
2023/02/03 14:10:05;;;;;;;53.07;9.90;;;;;;;;;;5001334;28;21179;-70
2023/02/03 14:12:32;;;;;;;40.20;8.23;;;;;;;;;;4999878;28;21343;-70
2023/02/03 14:15:03;;;;;;;40.23;9.40;;;;;;;;;;5000243;28;20436;-70
2023/02/03 14:17:34;;;;;;;44.30;8.10;;;;;;;;;;4999909;28;20842;-69
2023/02/03 14:20:00;;;;;;;44.27;9.57;;;;;;;;;;5000910;28;20439;-69
2023/02/03 14:22:26;;;;;;;42.50;8.50;;;;;;;;;;5001177;28;20939;-69
2023/02/03 14:24:53;;;;;;;40.03;10.27;;;;;;;;;;4999607;28;20185;-69
2023/02/03 14:27:22;;;;;;;47.33;10.20;;;;;;;;;;4993798;28;20444;-70
2023/02/03 14:30:06;;;;;;;54.47;9.83;;;;;;;;;;4993830;28;20487;-70
2023/02/03 14:32:48;;;;;;;32.90;8.33;;;;;;;;;;5002457;28;20976;-69
2023/02/03 14:35:17;;;;;;;41.40;9.53;;;;;;;;;;5000414;28;20425;-69
2023/02/03 14:37:50;;;;;;;46.60;8.90;;;;;;;;;;4982593;28;20428;-69
2023/02/03 14:40:24;;;;;;;45.57;8.77;;;;;;;;;;5002125;28;20530;-70
2023/02/03 14:42:50;;;;;;;40.50;8.60;;;;;;;;;;5003106;28;20455;-70
2023/02/03 14:45:24;;;;;;;42.40;9.17;;;;;;;;;;5002223;28;20479;-70
2023/02/03 14:48:01;;;;;;;32.90;7.10;;;;;;;;;;5004167;28;20180;-69
2023/02/03 14:50:35;;;;;;;38.63;8.37;;;;;;;;;;5003049;28;20448;-69